sensor_id;sensor_type;location;lat;lon;timestamp;P1;durP1;ratioP1;P2;durP2;ratioP2
11328;SDS011;5719;42.714;23.732;2024-01-11T00:01:39;16.02;;;7.38;;
11328;SDS011;5719;42.714;23.732;2024-01-11T00:04:11;12.73;;;5.70;;
11328;SDS011;5719;42.714;23.732;2024-01-11T00:06:40;17.88;;;6.97;;
11328;SDS011;5719;42.714;23.732;2024-01-11T00:09:09;15.90;;;6.82;;
11328;SDS011;5719;42.714;23.732;2024-01-11T00:11:36;13.60;;;6.60;;
11328;SDS011;5719;42.714;23.732;2024-01-11T00:14:03;14.25;;;6.65;;
11328;SDS011;5719;42.714;23.732;2024-01-11T00:16:30;11.75;;;6.60;;
11328;SDS011;5719;42.714;23.732;2024-01-11T00:18:57;12.13;;;6.20;;
11328;SDS011;5719;42.714;23.732;2024-01-11T00:21:24;13.07;;;6.63;;
11328;SDS011;5719;42.714;23.732;2024-01-11T00:23:50;13.82;;;6.55;;
11328;SDS011;5719;42.714;23.732;2024-01-11T00:26:19;12.18;;;5.72;;
11328;SDS011;5719;42.714;23.732;2024-01-11T00:28:45;16.15;;;7.05;;
11328;SDS011;5719;42.714;23.732;2024-01-11T00:31:12;14.32;;;6.25;;
11328;SDS011;5719;42.714;23.732;2024-01-11T00:33:39;10.05;;;5.75;;
11328;SDS011;5719;42.714;23.732;2024-01-11T00:36:06;16.42;;;6.35;;
11328;SDS011;5719;42.714;23.732;2024-01-11T00:38:33;10.73;;;5.93;;
11328;SDS011;5719;42.714;23.732;2024-01-11T00:40:59;10.93;;;5.80;;
11328;SDS011;5719;42.714;23.732;2024-01-11T00:43:27;16.10;;;7.35;;
11328;SDS011;5719;42.714;23.732;2024-01-11T00:45:54;18.83;;;7.63;;
11328;SDS011;5719;42.714;23.732;2024-01-11T00:48:21;14.55;;;6.95;;
11328;SDS011;5719;42.714;23.732;2024-01-11T00:50:48;15.38;;;7.43;;
11328;SDS011;5719;42.714;23.732;2024-01-11T00:53:14;18.63;;;7.78;;
11328;SDS011;5719;42.714;23.732;2024-01-11T00:55:42;16.13;;;7.45;;
11328;SDS011;5719;42.714;23.732;2024-01-11T00:58:08;14.70;;;6.13;;
11328;SDS011;5719;42.714;23.732;2024-01-11T01:00:36;19.92;;;7.95;;
11328;SDS011;5719;42.714;23.732;2024-01-11T01:03:03;14.23;;;6.70;;
11328;SDS011;5719;42.714;23.732;2024-01-11T01:05:30;15.07;;;7.05;;
11328;SDS011;5719;42.714;23.732;2024-01-11T01:07:57;13.35;;;7.03;;
11328;SDS011;5719;42.714;23.732;2024-01-11T01:10:24;17.73;;;7.13;;
11328;SDS011;5719;42.714;23.732;2024-01-11T01:12:50;18.40;;;7.70;;
11328;SDS011;5719;42.714;23.732;2024-01-11T01:15:17;12.40;;;7.15;;
11328;SDS011;5719;42.714;23.732;2024-01-11T01:17:45;12.50;;;6.78;;
11328;SDS011;5719;42.714;23.732;2024-01-11T01:20:12;16.33;;;7.18;;
11328;SDS011;5719;42.714;23.732;2024-01-11T01:22:39;12.52;;;6.40;;
11328;SDS011;5719;42.714;23.732;2024-01-11T01:25:06;22.02;;;6.97;;
11328;SDS011;5719;42.714;23.732;2024-01-11T01:27:34;19.38;;;6.90;;
11328;SDS011;5719;42.714;23.732;2024-01-11T01:30:00;16.80;;;7.22;;
11328;SDS011;5719;42.714;23.732;2024-01-11T01:32:27;20.13;;;8.23;;
11328;SDS011;5719;42.714;23.732;2024-01-11T01:34:56;21.50;;;7.85;;
11328;SDS011;5719;42.714;23.732;2024-01-11T01:37:23;16.70;;;7.70;;
11328;SDS011;5719;42.714;23.732;2024-01-11T01:39:50;15.27;;;7.28;;
11328;SDS011;5719;42.714;23.732;2024-01-11T01:42:17;14.77;;;7.03;;
11328;SDS011;5719;42.714;23.732;2024-01-11T01:44:44;19.75;;;7.63;;
11328;SDS011;5719;42.714;23.732;2024-01-11T01:47:11;25.52;;;7.57;;
11328;SDS011;5719;42.714;23.732;2024-01-11T01:49:38;20.45;;;7.75;;
11328;SDS011;5719;42.714;23.732;2024-01-11T01:52:06;27.15;;;9.10;;
11328;SDS011;5719;42.714;23.732;2024-01-11T01:54:34;22.45;;;8.15;;
11328;SDS011;5719;42.714;23.732;2024-01-11T01:57:01;24.48;;;8.88;;
11328;SDS011;5719;42.714;23.732;2024-01-11T01:59:31;32.97;;;10.25;;
11328;SDS011;5719;42.714;23.732;2024-01-11T02:01:58;26.88;;;9.23;;
11328;SDS011;5719;42.714;23.732;2024-01-11T02:04:25;24.92;;;9.23;;
11328;SDS011;5719;42.714;23.732;2024-01-11T02:06:52;30.05;;;9.25;;
11328;SDS011;5719;42.714;23.732;2024-01-11T02:09:21;29.35;;;8.27;;
11328;SDS011;5719;42.714;23.732;2024-01-11T02:11:49;19.98;;;8.40;;
11328;SDS011;5719;42.714;23.732;2024-01-11T02:14:18;18.90;;;7.13;;
11328;SDS011;5719;42.714;23.732;2024-01-11T02:16:45;17.27;;;6.65;;
11328;SDS011;5719;42.714;23.732;2024-01-11T02:19:12;14.85;;;6.85;;
11328;SDS011;5719;42.714;23.732;2024-01-11T02:21:40;15.80;;;6.80;;
11328;SDS011;5719;42.714;23.732;2024-01-11T02:24:10;25.55;;;8.65;;
11328;SDS011;5719;42.714;23.732;2024-01-11T02:26:37;22.27;;;8.02;;
11328;SDS011;5719;42.714;23.732;2024-01-11T02:29:24;19.15;;;8.07;;
11328;SDS011;5719;42.714;23.732;2024-01-11T02:31:51;20.35;;;8.10;;
11328;SDS011;5719;42.714;23.732;2024-01-11T02:34:18;16.65;;;7.57;;
11328;SDS011;5719;42.714;23.732;2024-01-11T02:36:45;18.77;;;7.25;;
11328;SDS011;5719;42.714;23.732;2024-01-11T02:39:14;24.58;;;7.82;;
11328;SDS011;5719;42.714;23.732;2024-01-11T02:41:43;20.25;;;7.95;;
11328;SDS011;5719;42.714;23.732;2024-01-11T02:44:10;22.60;;;8.18;;
11328;SDS011;5719;42.714;23.732;2024-01-11T02:46:37;22.73;;;8.52;;
11328;SDS011;5719;42.714;23.732;2024-01-11T02:49:04;24.25;;;8.38;;
11328;SDS011;5719;42.714;23.732;2024-01-11T02:51:31;22.80;;;8.63;;
11328;SDS011;5719;42.714;23.732;2024-01-11T02:53:57;23.67;;;7.97;;
11328;SDS011;5719;42.714;23.732;2024-01-11T02:56:26;21.33;;;8.35;;
11328;SDS011;5719;42.714;23.732;2024-01-11T02:58:52;19.73;;;7.72;;
11328;SDS011;5719;42.714;23.732;2024-01-11T03:01:19;17.98;;;8.38;;
11328;SDS011;5719;42.714;23.732;2024-01-11T03:03:46;20.38;;;8.63;;
11328;SDS011;5719;42.714;23.732;2024-01-11T03:06:13;21.13;;;7.93;;
11328;SDS011;5719;42.714;23.732;2024-01-11T03:08:42;25.90;;;9.07;;
11328;SDS011;5719;42.714;23.732;2024-01-11T03:11:09;27.00;;;9.02;;
11328;SDS011;5719;42.714;23.732;2024-01-11T03:13:37;23.00;;;9.07;;
11328;SDS011;5719;42.714;23.732;2024-01-11T03:16:04;26.65;;;8.50;;
11328;SDS011;5719;42.714;23.732;2024-01-11T03:18:31;20.35;;;7.75;;
11328;SDS011;5719;42.714;23.732;2024-01-11T03:20:58;27.63;;;8.65;;
11328;SDS011;5719;42.714;23.732;2024-01-11T03:23:25;47.92;;;9.90;;
11328;SDS011;5719;42.714;23.732;2024-01-11T03:25:52;28.55;;;8.90;;
11328;SDS011;5719;42.714;23.732;2024-01-11T03:28:18;22.38;;;7.78;;
11328;SDS011;5719;42.714;23.732;2024-01-11T03:30:46;28.02;;;9.32;;
11328;SDS011;5719;42.714;23.732;2024-01-11T03:33:13;22.60;;;9.07;;
11328;SDS011;5719;42.714;23.732;2024-01-11T03:35:40;22.70;;;8.88;;
11328;SDS011;5719;42.714;23.732;2024-01-11T03:38:09;19.45;;;8.85;;
11328;SDS011;5719;42.714;23.732;2024-01-11T03:40:35;22.63;;;8.35;;
11328;SDS011;5719;42.714;23.732;2024-01-11T03:43:02;26.08;;;8.52;;
11328;SDS011;5719;42.714;23.732;2024-01-11T03:45:29;19.17;;;8.05;;
11328;SDS011;5719;42.714;23.732;2024-01-11T03:47:58;18.45;;;8.32;;
11328;SDS011;5719;42.714;23.732;2024-01-11T03:50:25;20.75;;;8.00;;
11328;SDS011;5719;42.714;23.732;2024-01-11T03:52:51;17.55;;;7.30;;
11328;SDS011;5719;42.714;23.732;2024-01-11T03:55:21;17.77;;;8.18;;
11328;SDS011;5719;42.714;23.732;2024-01-11T03:57:48;19.42;;;8.50;;
11328;SDS011;5719;42.714;23.732;2024-01-11T04:00:15;22.33;;;7.85;;
11328;SDS011;5719;42.714;23.732;2024-01-11T04:02:42;21.27;;;7.68;;
11328;SDS011;5719;42.714;23.732;2024-01-11T04:05:10;22.08;;;8.18;;
11328;SDS011;5719;42.714;23.732;2024-01-11T04:07:37;19.25;;;8.85;;
11328;SDS011;5719;42.714;23.732;2024-01-11T04:10:04;18.55;;;7.65;;
11328;SDS011;5719;42.714;23.732;2024-01-11T04:12:33;21.35;;;9.05;;
11328;SDS011;5719;42.714;23.732;2024-01-11T04:15:00;17.08;;;7.90;;
11328;SDS011;5719;42.714;23.732;2024-01-11T04:17:27;22.13;;;8.75;;
11328;SDS011;5719;42.714;23.732;2024-01-11T04:19:53;22.77;;;8.82;;
11328;SDS011;5719;42.714;23.732;2024-01-11T04:22:21;17.85;;;8.15;;
11328;SDS011;5719;42.714;23.732;2024-01-11T04:24:48;18.40;;;8.55;;
11328;SDS011;5719;42.714;23.732;2024-01-11T04:27:15;18.40;;;8.55;;
11328;SDS011;5719;42.714;23.732;2024-01-11T04:29:42;20.38;;;8.43;;
11328;SDS011;5719;42.714;23.732;2024-01-11T04:32:08;13.50;;;6.55;;
11328;SDS011;5719;42.714;23.732;2024-01-11T04:34:35;19.25;;;6.93;;
11328;SDS011;5719;42.714;23.732;2024-01-11T04:37:02;16.08;;;6.60;;
11328;SDS011;5719;42.714;23.732;2024-01-11T04:39:31;13.35;;;6.50;;
11328;SDS011;5719;42.714;23.732;2024-01-11T04:41:58;15.40;;;6.47;;
11328;SDS011;5719;42.714;23.732;2024-01-11T04:44:26;13.93;;;5.78;;
11328;SDS011;5719;42.714;23.732;2024-01-11T04:46:52;13.98;;;6.30;;
11328;SDS011;5719;42.714;23.732;2024-01-11T04:49:19;14.18;;;6.63;;
11328;SDS011;5719;42.714;23.732;2024-01-11T04:51:46;15.93;;;7.13;;
11328;SDS011;5719;42.714;23.732;2024-01-11T04:54:13;12.05;;;6.22;;
11328;SDS011;5719;42.714;23.732;2024-01-11T04:56:41;19.50;;;6.93;;
11328;SDS011;5719;42.714;23.732;2024-01-11T04:59:08;13.25;;;6.57;;
11328;SDS011;5719;42.714;23.732;2024-01-11T05:01:34;11.63;;;6.25;;
11328;SDS011;5719;42.714;23.732;2024-01-11T05:04:01;16.23;;;6.78;;
11328;SDS011;5719;42.714;23.732;2024-01-11T05:06:28;14.07;;;6.10;;
11328;SDS011;5719;42.714;23.732;2024-01-11T05:08:55;16.70;;;6.35;;
11328;SDS011;5719;42.714;23.732;2024-01-11T05:11:22;10.73;;;6.30;;
11328;SDS011;5719;42.714;23.732;2024-01-11T05:13:53;15.93;;;6.88;;
11328;SDS011;5719;42.714;23.732;2024-01-11T05:16:20;14.75;;;6.80;;
11328;SDS011;5719;42.714;23.732;2024-01-11T05:18:48;12.85;;;6.57;;
11328;SDS011;5719;42.714;23.732;2024-01-11T05:21:15;14.23;;;7.43;;
11328;SDS011;5719;42.714;23.732;2024-01-11T05:23:42;18.15;;;7.38;;
11328;SDS011;5719;42.714;23.732;2024-01-11T05:26:09;17.30;;;8.57;;
11328;SDS011;5719;42.714;23.732;2024-01-11T05:28:36;20.92;;;8.63;;
11328;SDS011;5719;42.714;23.732;2024-01-11T05:31:06;24.88;;;11.18;;
11328;SDS011;5719;42.714;23.732;2024-01-11T05:33:35;23.92;;;10.30;;
11328;SDS011;5719;42.714;23.732;2024-01-11T05:36:02;24.30;;;9.98;;
11328;SDS011;5719;42.714;23.732;2024-01-11T05:38:30;35.63;;;13.15;;
11328;SDS011;5719;42.714;23.732;2024-01-11T05:40:57;37.63;;;15.82;;
11328;SDS011;5719;42.714;23.732;2024-01-11T05:43:23;62.13;;;23.50;;
11328;SDS011;5719;42.714;23.732;2024-01-11T05:45:50;45.33;;;17.05;;
11328;SDS011;5719;42.714;23.732;2024-01-11T05:48:18;48.90;;;19.73;;
11328;SDS011;5719;42.714;23.732;2024-01-11T05:50:45;48.85;;;21.15;;
11328;SDS011;5719;42.714;23.732;2024-01-11T05:53:12;38.58;;;16.35;;
11328;SDS011;5719;42.714;23.732;2024-01-11T05:55:39;35.97;;;13.57;;
11328;SDS011;5719;42.714;23.732;2024-01-11T05:58:06;23.55;;;11.93;;
11328;SDS011;5719;42.714;23.732;2024-01-11T06:00:33;29.38;;;13.05;;
11328;SDS011;5719;42.714;23.732;2024-01-11T06:03:00;24.13;;;11.88;;
11328;SDS011;5719;42.714;23.732;2024-01-11T06:05:28;24.17;;;10.98;;
11328;SDS011;5719;42.714;23.732;2024-01-11T06:07:55;25.98;;;12.32;;
11328;SDS011;5719;42.714;23.732;2024-01-11T06:10:22;23.75;;;10.77;;
11328;SDS011;5719;42.714;23.732;2024-01-11T06:12:47;25.08;;;12.32;;
11328;SDS011;5719;42.714;23.732;2024-01-11T06:15:14;30.10;;;12.95;;
11328;SDS011;5719;42.714;23.732;2024-01-11T06:17:41;31.45;;;12.45;;
11328;SDS011;5719;42.714;23.732;2024-01-11T06:20:08;37.22;;;13.90;;
11328;SDS011;5719;42.714;23.732;2024-01-11T06:22:38;29.15;;;13.73;;
11328;SDS011;5719;42.714;23.732;2024-01-11T06:25:05;32.88;;;15.02;;
11328;SDS011;5719;42.714;23.732;2024-01-11T06:27:32;33.60;;;13.82;;
11328;SDS011;5719;42.714;23.732;2024-01-11T06:29:58;35.28;;;14.18;;
11328;SDS011;5719;42.714;23.732;2024-01-11T06:32:25;30.00;;;13.63;;
11328;SDS011;5719;42.714;23.732;2024-01-11T06:34:52;34.80;;;15.68;;
11328;SDS011;5719;42.714;23.732;2024-01-11T06:37:19;34.08;;;14.82;;
11328;SDS011;5719;42.714;23.732;2024-01-11T06:39:47;44.05;;;14.23;;
11328;SDS011;5719;42.714;23.732;2024-01-11T06:42:14;29.98;;;12.30;;
11328;SDS011;5719;42.714;23.732;2024-01-11T06:44:41;25.33;;;11.43;;
11328;SDS011;5719;42.714;23.732;2024-01-11T06:47:08;33.72;;;11.88;;
11328;SDS011;5719;42.714;23.732;2024-01-11T06:49:37;24.85;;;11.10;;
11328;SDS011;5719;42.714;23.732;2024-01-11T06:52:04;19.35;;;9.75;;
11328;SDS011;5719;42.714;23.732;2024-01-11T06:54:31;24.38;;;10.75;;
11328;SDS011;5719;42.714;23.732;2024-01-11T06:57:00;19.60;;;9.40;;
11328;SDS011;5719;42.714;23.732;2024-01-11T06:59:26;15.57;;;8.50;;
11328;SDS011;5719;42.714;23.732;2024-01-11T07:01:53;18.55;;;8.60;;
11328;SDS011;5719;42.714;23.732;2024-01-11T07:04:20;24.08;;;8.95;;
11328;SDS011;5719;42.714;23.732;2024-01-11T07:06:47;19.75;;;8.98;;
11328;SDS011;5719;42.714;23.732;2024-01-11T07:09:14;19.95;;;8.82;;
11328;SDS011;5719;42.714;23.732;2024-01-11T07:11:42;22.83;;;9.98;;
11328;SDS011;5719;42.714;23.732;2024-01-11T07:14:10;31.35;;;11.75;;
11328;SDS011;5719;42.714;23.732;2024-01-11T07:16:37;43.42;;;15.32;;
11328;SDS011;5719;42.714;23.732;2024-01-11T07:19:04;35.33;;;13.07;;
11328;SDS011;5719;42.714;23.732;2024-01-11T07:21:31;27.77;;;12.20;;
11328;SDS011;5719;42.714;23.732;2024-01-11T07:23:58;30.02;;;12.10;;
11328;SDS011;5719;42.714;23.732;2024-01-11T07:26:24;23.15;;;12.02;;
11328;SDS011;5719;42.714;23.732;2024-01-11T07:28:52;21.13;;;11.32;;
11328;SDS011;5719;42.714;23.732;2024-01-11T07:31:22;22.55;;;11.32;;
11328;SDS011;5719;42.714;23.732;2024-01-11T07:33:49;25.10;;;10.98;;
11328;SDS011;5719;42.714;23.732;2024-01-11T07:36:16;21.15;;;10.60;;
11328;SDS011;5719;42.714;23.732;2024-01-11T07:38:43;16.58;;;9.93;;
11328;SDS011;5719;42.714;23.732;2024-01-11T07:41:09;17.10;;;9.45;;
11328;SDS011;5719;42.714;23.732;2024-01-11T07:43:36;23.13;;;11.27;;
11328;SDS011;5719;42.714;23.732;2024-01-11T07:46:03;22.30;;;10.90;;
11328;SDS011;5719;42.714;23.732;2024-01-11T07:48:32;26.48;;;10.95;;
11328;SDS011;5719;42.714;23.732;2024-01-11T07:50:59;21.27;;;11.38;;
11328;SDS011;5719;42.714;23.732;2024-01-11T07:53:26;27.42;;;11.85;;
11328;SDS011;5719;42.714;23.732;2024-01-11T07:55:53;30.17;;;13.05;;
11328;SDS011;5719;42.714;23.732;2024-01-11T07:58:19;35.90;;;14.75;;
11328;SDS011;5719;42.714;23.732;2024-01-11T08:00:47;39.53;;;15.60;;
11328;SDS011;5719;42.714;23.732;2024-01-11T08:03:14;40.20;;;17.20;;
11328;SDS011;5719;42.714;23.732;2024-01-11T08:05:42;32.85;;;15.60;;
11328;SDS011;5719;42.714;23.732;2024-01-11T08:08:09;30.80;;;15.40;;
11328;SDS011;5719;42.714;23.732;2024-01-11T08:10:36;32.97;;;15.95;;
11328;SDS011;5719;42.714;23.732;2024-01-11T08:13:03;32.35;;;16.00;;
11328;SDS011;5719;42.714;23.732;2024-01-11T08:15:30;35.88;;;17.08;;
11328;SDS011;5719;42.714;23.732;2024-01-11T08:17:56;32.78;;;17.42;;
11328;SDS011;5719;42.714;23.732;2024-01-11T08:20:23;34.58;;;18.23;;
11328;SDS011;5719;42.714;23.732;2024-01-11T08:22:52;37.60;;;17.25;;
11328;SDS011;5719;42.714;23.732;2024-01-11T08:25:18;37.05;;;16.10;;
11328;SDS011;5719;42.714;23.732;2024-01-11T08:27:45;39.03;;;16.55;;
11328;SDS011;5719;42.714;23.732;2024-01-11T08:30:12;35.85;;;16.65;;
11328;SDS011;5719;42.714;23.732;2024-01-11T08:32:39;25.30;;;15.35;;
11328;SDS011;5719;42.714;23.732;2024-01-11T08:35:07;31.38;;;16.60;;
11328;SDS011;5719;42.714;23.732;2024-01-11T08:37:35;26.55;;;15.48;;
11328;SDS011;5719;42.714;23.732;2024-01-11T08:40:04;27.25;;;15.45;;
11328;SDS011;5719;42.714;23.732;2024-01-11T08:42:32;28.20;;;15.23;;
11328;SDS011;5719;42.714;23.732;2024-01-11T08:44:59;26.85;;;15.40;;
11328;SDS011;5719;42.714;23.732;2024-01-11T08:47:31;27.13;;;15.50;;
11328;SDS011;5719;42.714;23.732;2024-01-11T08:49:59;24.75;;;14.75;;
11328;SDS011;5719;42.714;23.732;2024-01-11T08:52:25;25.73;;;15.07;;
11328;SDS011;5719;42.714;23.732;2024-01-11T08:54:52;29.58;;;16.00;;
11328;SDS011;5719;42.714;23.732;2024-01-11T08:57:20;26.73;;;15.25;;
11328;SDS011;5719;42.714;23.732;2024-01-11T08:59:48;28.45;;;15.65;;
11328;SDS011;5719;42.714;23.732;2024-01-11T09:02:15;30.48;;;15.50;;
11328;SDS011;5719;42.714;23.732;2024-01-11T09:04:42;26.98;;;15.63;;
11328;SDS011;5719;42.714;23.732;2024-01-11T09:07:09;29.10;;;16.42;;
11328;SDS011;5719;42.714;23.732;2024-01-11T09:09:36;30.58;;;16.25;;
11328;SDS011;5719;42.714;23.732;2024-01-11T09:12:03;23.30;;;14.57;;
11328;SDS011;5719;42.714;23.732;2024-01-11T09:14:33;29.58;;;15.35;;
11328;SDS011;5719;42.714;23.732;2024-01-11T09:17:00;25.33;;;14.77;;
11328;SDS011;5719;42.714;23.732;2024-01-11T09:19:31;27.27;;;15.65;;
11328;SDS011;5719;42.714;23.732;2024-01-11T09:21:59;30.90;;;14.80;;
11328;SDS011;5719;42.714;23.732;2024-01-11T09:24:25;27.08;;;15.18;;
11328;SDS011;5719;42.714;23.732;2024-01-11T09:26:52;25.25;;;15.23;;
11328;SDS011;5719;42.714;23.732;2024-01-11T09:29:19;29.70;;;15.88;;
11328;SDS011;5719;42.714;23.732;2024-01-11T09:31:47;25.90;;;15.95;;
11328;SDS011;5719;42.714;23.732;2024-01-11T09:34:14;28.40;;;15.27;;
11328;SDS011;5719;42.714;23.732;2024-01-11T09:36:42;26.15;;;14.82;;
11328;SDS011;5719;42.714;23.732;2024-01-11T09:39:10;31.48;;;15.73;;
11328;SDS011;5719;42.714;23.732;2024-01-11T09:41:38;25.33;;;14.38;;
11328;SDS011;5719;42.714;23.732;2024-01-11T09:44:09;28.88;;;15.07;;
11328;SDS011;5719;42.714;23.732;2024-01-11T09:46:36;30.42;;;17.00;;
11328;SDS011;5719;42.714;23.732;2024-01-11T09:49:04;29.88;;;16.90;;
11328;SDS011;5719;42.714;23.732;2024-01-11T09:51:32;31.90;;;17.48;;
11328;SDS011;5719;42.714;23.732;2024-01-11T09:54:04;33.15;;;16.80;;
11328;SDS011;5719;42.714;23.732;2024-01-11T09:56:32;35.45;;;17.23;;
11328;SDS011;5719;42.714;23.732;2024-01-11T09:59:00;30.75;;;17.15;;
11328;SDS011;5719;42.714;23.732;2024-01-11T10:01:31;30.25;;;17.05;;
11328;SDS011;5719;42.714;23.732;2024-01-11T10:03:58;26.55;;;15.32;;
11328;SDS011;5719;42.714;23.732;2024-01-11T10:06:27;31.27;;;16.27;;
11328;SDS011;5719;42.714;23.732;2024-01-11T10:08:53;28.00;;;15.20;;
11328;SDS011;5719;42.714;23.732;2024-01-11T10:11:20;30.23;;;16.50;;
11328;SDS011;5719;42.714;23.732;2024-01-11T10:13:47;26.23;;;14.43;;
11328;SDS011;5719;42.714;23.732;2024-01-11T10:16:14;26.52;;;14.45;;
11328;SDS011;5719;42.714;23.732;2024-01-11T10:18:40;25.48;;;14.18;;
11328;SDS011;5719;42.714;23.732;2024-01-11T10:21:08;24.98;;;14.93;;
11328;SDS011;5719;42.714;23.732;2024-01-11T10:23:37;35.15;;;15.27;;
11328;SDS011;5719;42.714;23.732;2024-01-11T10:26:04;26.48;;;14.63;;
11328;SDS011;5719;42.714;23.732;2024-01-11T10:28:32;28.73;;;16.73;;
11328;SDS011;5719;42.714;23.732;2024-01-11T10:31:02;28.70;;;17.20;;
11328;SDS011;5719;42.714;23.732;2024-01-11T10:33:33;36.25;;;16.38;;
11328;SDS011;5719;42.714;23.732;2024-01-11T10:36:00;28.98;;;15.98;;
11328;SDS011;5719;42.714;23.732;2024-01-11T10:38:47;33.67;;;16.42;;
11328;SDS011;5719;42.714;23.732;2024-01-11T10:41:15;27.73;;;16.23;;
11328;SDS011;5719;42.714;23.732;2024-01-11T10:43:44;29.45;;;16.75;;
11328;SDS011;5719;42.714;23.732;2024-01-11T10:46:17;29.27;;;14.98;;
11328;SDS011;5719;42.714;23.732;2024-01-11T10:48:52;24.10;;;15.10;;
11328;SDS011;5719;42.714;23.732;2024-01-11T10:51:22;23.45;;;15.15;;
11328;SDS011;5719;42.714;23.732;2024-01-11T10:53:53;25.05;;;16.05;;
11328;SDS011;5719;42.714;23.732;2024-01-11T10:56:21;26.23;;;15.63;;
11328;SDS011;5719;42.714;23.732;2024-01-11T10:58:50;29.95;;;15.95;;
11328;SDS011;5719;42.714;23.732;2024-01-11T11:01:17;25.90;;;15.02;;
11328;SDS011;5719;42.714;23.732;2024-01-11T11:03:46;26.02;;;15.15;;
11328;SDS011;5719;42.714;23.732;2024-01-11T11:06:19;29.58;;;16.30;;
11328;SDS011;5719;42.714;23.732;2024-01-11T11:08:47;30.25;;;15.30;;
11328;SDS011;5719;42.714;23.732;2024-01-11T11:11:18;26.15;;;15.07;;
11328;SDS011;5719;42.714;23.732;2024-01-11T11:13:46;25.85;;;15.07;;
11328;SDS011;5719;42.714;23.732;2024-01-11T11:16:15;27.48;;;14.93;;
11328;SDS011;5719;42.714;23.732;2024-01-11T11:22:12;27.48;;;15.68;;
11328;SDS011;5719;42.714;23.732;2024-01-11T11:24:40;26.30;;;15.32;;
11328;SDS011;5719;42.714;23.732;2024-01-11T11:27:08;28.77;;;15.25;;
11328;SDS011;5719;42.714;23.732;2024-01-11T11:29:35;25.90;;;15.25;;
11328;SDS011;5719;42.714;23.732;2024-01-11T11:32:02;25.88;;;14.48;;
11328;SDS011;5719;42.714;23.732;2024-01-11T11:34:42;25.80;;;15.10;;
11328;SDS011;5719;42.714;23.732;2024-01-11T11:37:10;30.50;;;14.30;;
11328;SDS011;5719;42.714;23.732;2024-01-11T11:39:37;29.90;;;14.35;;
11328;SDS011;5719;42.714;23.732;2024-01-11T11:42:06;23.05;;;13.07;;
11328;SDS011;5719;42.714;23.732;2024-01-11T11:44:34;20.60;;;13.50;;
11328;SDS011;5719;42.714;23.732;2024-01-11T11:47:17;20.27;;;12.55;;
11328;SDS011;5719;42.714;23.732;2024-01-11T11:49:52;25.10;;;12.65;;
11328;SDS011;5719;42.714;23.732;2024-01-11T11:52:24;20.75;;;12.27;;
11328;SDS011;5719;42.714;23.732;2024-01-11T11:54:51;27.42;;;11.63;;
11328;SDS011;5719;42.714;23.732;2024-01-11T11:57:19;18.45;;;11.20;;
11328;SDS011;5719;42.714;23.732;2024-01-11T11:59:49;19.33;;;11.50;;
11328;SDS011;5719;42.714;23.732;2024-01-11T12:02:23;22.77;;;12.23;;
11328;SDS011;5719;42.714;23.732;2024-01-11T12:04:52;27.63;;;12.20;;
11328;SDS011;5719;42.714;23.732;2024-01-11T12:07:19;31.42;;;12.23;;
11328;SDS011;5719;42.714;23.732;2024-01-11T12:09:46;20.48;;;12.13;;
11328;SDS011;5719;42.714;23.732;2024-01-11T12:12:13;20.42;;;12.15;;
11328;SDS011;5719;42.714;23.732;2024-01-11T12:14:41;24.35;;;13.15;;
11328;SDS011;5719;42.714;23.732;2024-01-11T12:17:10;21.38;;;12.57;;
11328;SDS011;5719;42.714;23.732;2024-01-11T12:19:37;21.55;;;12.48;;
11328;SDS011;5719;42.714;23.732;2024-01-11T12:22:03;23.08;;;12.35;;
11328;SDS011;5719;42.714;23.732;2024-01-11T12:24:30;19.27;;;11.60;;
11328;SDS011;5719;42.714;23.732;2024-01-11T12:26:58;21.85;;;13.13;;
11328;SDS011;5719;42.714;23.732;2024-01-11T12:29:28;21.80;;;13.23;;
11328;SDS011;5719;42.714;23.732;2024-01-11T12:31:55;23.52;;;13.45;;
11328;SDS011;5719;42.714;23.732;2024-01-11T12:34:25;29.75;;;12.73;;
11328;SDS011;5719;42.714;23.732;2024-01-11T12:36:52;28.13;;;13.63;;
11328;SDS011;5719;42.714;23.732;2024-01-11T12:39:20;29.88;;;13.75;;
11328;SDS011;5719;42.714;23.732;2024-01-11T12:41:49;26.92;;;13.18;;
11328;SDS011;5719;42.714;23.732;2024-01-11T12:44:17;24.52;;;13.60;;
11328;SDS011;5719;42.714;23.732;2024-01-11T12:46:45;21.63;;;12.90;;
11328;SDS011;5719;42.714;23.732;2024-01-11T12:49:15;21.15;;;12.35;;
11328;SDS011;5719;42.714;23.732;2024-01-11T12:51:43;26.88;;;13.30;;
11328;SDS011;5719;42.714;23.732;2024-01-11T12:54:11;23.65;;;12.95;;
11328;SDS011;5719;42.714;23.732;2024-01-11T12:56:42;26.15;;;12.57;;
11328;SDS011;5719;42.714;23.732;2024-01-11T12:59:09;26.45;;;13.13;;
11328;SDS011;5719;42.714;23.732;2024-01-11T13:01:37;23.45;;;13.10;;
11328;SDS011;5719;42.714;23.732;2024-01-11T13:07:34;25.63;;;14.32;;
11328;SDS011;5719;42.714;23.732;2024-01-11T13:10:03;28.38;;;14.10;;
11328;SDS011;5719;42.714;23.732;2024-01-11T13:12:30;27.30;;;13.93;;
11328;SDS011;5719;42.714;23.732;2024-01-11T13:14:57;24.45;;;13.73;;
11328;SDS011;5719;42.714;23.732;2024-01-11T13:17:24;33.15;;;14.30;;
11328;SDS011;5719;42.714;23.732;2024-01-11T13:19:52;23.90;;;14.68;;
11328;SDS011;5719;42.714;23.732;2024-01-11T13:22:19;29.60;;;15.15;;
11328;SDS011;5719;42.714;23.732;2024-01-11T13:24:47;28.50;;;14.77;;
11328;SDS011;5719;42.714;23.732;2024-01-11T13:27:15;25.17;;;14.38;;
11328;SDS011;5719;42.714;23.732;2024-01-11T13:29:42;28.05;;;15.18;;
11328;SDS011;5719;42.714;23.732;2024-01-11T13:32:09;22.00;;;14.00;;
11328;SDS011;5719;42.714;23.732;2024-01-11T13:34:36;26.08;;;14.00;;
11328;SDS011;5719;42.714;23.732;2024-01-11T13:37:03;22.13;;;14.20;;
11328;SDS011;5719;42.714;23.732;2024-01-11T13:39:30;26.75;;;14.43;;
11328;SDS011;5719;42.714;23.732;2024-01-11T13:41:59;30.10;;;14.93;;
11328;SDS011;5719;42.714;23.732;2024-01-11T13:44:28;25.75;;;15.40;;
11328;SDS011;5719;42.714;23.732;2024-01-11T13:46:55;23.88;;;14.63;;
11328;SDS011;5719;42.714;23.732;2024-01-11T13:49:22;28.08;;;15.27;;
11328;SDS011;5719;42.714;23.732;2024-01-11T13:55:30;26.23;;;13.88;;
11328;SDS011;5719;42.714;23.732;2024-01-11T13:58:04;24.92;;;14.27;;
11328;SDS011;5719;42.714;23.732;2024-01-11T14:00:31;21.00;;;13.27;;
11328;SDS011;5719;42.714;23.732;2024-01-11T14:02:58;24.08;;;15.18;;
11328;SDS011;5719;42.714;23.732;2024-01-11T14:05:24;27.20;;;15.52;;
11328;SDS011;5719;42.714;23.732;2024-01-11T14:07:51;26.10;;;14.32;;
11328;SDS011;5719;42.714;23.732;2024-01-11T14:10:35;29.70;;;14.82;;
11328;SDS011;5719;42.714;23.732;2024-01-11T14:13:04;26.45;;;15.10;;
11328;SDS011;5719;42.714;23.732;2024-01-11T14:15:30;26.65;;;14.30;;
11328;SDS011;5719;42.714;23.732;2024-01-11T14:17:57;25.90;;;14.65;;
11328;SDS011;5719;42.714;23.732;2024-01-11T14:20:24;31.98;;;15.00;;
11328;SDS011;5719;42.714;23.732;2024-01-11T14:22:51;31.25;;;14.60;;
11328;SDS011;5719;42.714;23.732;2024-01-11T14:25:18;28.42;;;15.77;;
11328;SDS011;5719;42.714;23.732;2024-01-11T14:27:46;25.13;;;14.55;;
11328;SDS011;5719;42.714;23.732;2024-01-11T14:30:15;29.95;;;15.43;;
11328;SDS011;5719;42.714;23.732;2024-01-11T14:32:42;25.20;;;15.20;;
11328;SDS011;5719;42.714;23.732;2024-01-11T14:35:09;26.30;;;15.13;;
11328;SDS011;5719;42.714;23.732;2024-01-11T14:40:21;26.65;;;14.32;;
11328;SDS011;5719;42.714;23.732;2024-01-11T14:42:49;32.38;;;14.82;;